createdAt,value
2018-09-12T00:01:45.010Z,68.61
2018-09-12T00:06:28.618Z,69.10
2018-09-12T00:11:12.020Z,71.04
2018-09-12T00:15:55.697Z,71.33
2018-09-12T00:20:39.228Z,71.17
2018-09-12T00:25:22.945Z,72.31
2018-09-12T00:30:06.268Z,72.91
2018-09-12T00:34:53.445Z,73.06
2018-09-12T00:39:36.919Z,74.92
2018-09-12T00:44:20.392Z,74.21
2018-09-12T00:49:04.067Z,73.84
2018-09-12T00:53:47.560Z,73.33
2018-09-12T00:58:31.124Z,73.75
2018-09-12T01:03:14.634Z,73.73
2018-09-12T01:07:58.009Z,74.17
2018-09-12T01:12:41.422Z,74.54
2018-09-12T01:17:26.007Z,76.22
2018-09-12T01:22:11.028Z,76.27
2018-09-12T01:26:54.773Z,77.89
2018-09-12T01:31:38.312Z,78.12
2018-09-12T01:36:22.840Z,80.35
2018-09-12T01:41:06.358Z,81.39
2018-09-12T01:45:50.866Z,82.14
2018-09-12T01:50:34.275Z,80.84
2018-09-12T01:55:21.562Z,81.24
2018-09-12T02:00:05.596Z,81.31
2018-09-12T02:04:52.118Z,81.73
2018-09-12T02:09:35.644Z,81.21
2018-09-12T02:14:19.057Z,81.12
2018-09-12T02:19:03.254Z,81.83
2018-09-12T02:23:46.704Z,82.05
2018-09-12T02:28:30.414Z,82.88
2018-09-12T02:33:13.852Z,82.93
2018-09-12T02:38:01.034Z,82.82
2018-09-12T02:42:44.487Z,85.88
2018-09-12T02:47:33.365Z,86.02
2018-09-12T02:52:16.879Z,86.67
2018-09-12T02:57:00.520Z,86.57
2018-09-12T03:01:43.925Z,86.46
2018-09-12T03:06:27.554Z,86.94
2018-09-12T03:11:11.070Z,86.16
2018-09-12T03:15:57.529Z,86.50
2018-09-12T03:20:41.010Z,86.62
2018-09-12T03:25:24.998Z,87.27
2018-09-12T03:30:08.416Z,86.74
2018-09-12T03:34:53.084Z,86.85
2018-09-12T03:39:36.515Z,87.10
2018-09-12T03:44:21.169Z,87.20
2018-09-12T03:49:04.735Z,87.21
2018-09-12T03:53:48.122Z,86.72
2018-09-12T03:58:31.609Z,86.54
2018-09-12T04:03:15.039Z,85.83
2018-09-12T04:07:58.684Z,85.66
2018-09-12T04:12:42.133Z,85.81
2018-09-12T04:17:31.438Z,85.53
2018-09-12T04:22:14.916Z,86.37
2018-09-12T04:26:58.616Z,87.02
2018-09-12T04:31:41.921Z,86.31
2018-09-12T04:36:26.459Z,87.12
2018-09-12T04:41:09.883Z,86.91
2018-09-12T04:45:56.380Z,86.98
2018-09-12T04:50:39.682Z,86.94
2018-09-12T04:55:23.297Z,87.46
2018-09-12T05:00:06.756Z,86.42
2018-09-12T05:04:54.557Z,86.86
2018-09-12T05:09:38.323Z,86.26
2018-09-12T05:14:25.349Z,86.55
2018-09-12T05:19:09.490Z,85.45
2018-09-12T05:23:53.093Z,86.04
2018-09-12T05:28:38.246Z,85.64
2018-09-12T05:33:21.502Z,85.29
2018-09-12T05:38:06.465Z,85.53
2018-09-12T05:42:50.521Z,85.17
2018-09-12T05:47:35.012Z,84.53
2018-09-12T05:52:18.370Z,84.80
2018-09-12T05:57:05.377Z,84.76
2018-09-12T06:01:49.500Z,84.43
2018-09-12T06:06:36.388Z,85.22
2018-09-12T06:11:19.755Z,84.07
2018-09-12T06:16:04.263Z,83.77
2018-09-12T06:20:47.790Z,84.23
2018-09-12T06:25:32.323Z,83.69
2018-09-12T06:30:15.788Z,83.34
2018-09-12T06:35:00.253Z,83.95
2018-09-12T06:39:43.751Z,83.24
2018-09-12T06:44:32.952Z,83.75
2018-09-12T06:49:16.380Z,83.72
2018-09-12T06:54:02.692Z,82.35
2018-09-12T06:58:46.047Z,82.83
2018-09-12T07:03:32.841Z,82.37
2018-09-12T07:08:19.970Z,81.23
2018-09-12T07:13:03.319Z,81.50
2018-09-12T07:17:49.895Z,80.19
2018-09-12T07:22:33.478Z,78.96
2018-09-12T07:27:17.820Z,78.42
2018-09-12T07:32:01.247Z,79.01
2018-09-12T07:36:48.411Z,79.44
2018-09-12T07:41:31.776Z,78.40
2018-09-12T07:46:18.676Z,78.42
2018-09-12T07:51:02.220Z,77.44
2018-09-12T07:55:49.297Z,77.54
2018-09-12T08:00:32.855Z,78.37
2018-09-12T08:05:19.730Z,77.79
2018-09-12T08:10:03.214Z,77.04
2018-09-12T08:14:50.168Z,77.99
2018-09-12T08:19:33.748Z,77.17
2018-09-12T08:24:20.802Z,76.97
2018-09-12T08:29:04.285Z,76.26
2018-09-12T08:33:51.328Z,73.39
2018-09-12T08:38:35.327Z,74.40
2018-09-12T08:43:19.772Z,73.39
2018-09-12T08:48:03.393Z,72.79
2018-09-12T08:52:48.193Z,71.81
2018-09-12T08:57:31.646Z,73.03
2018-09-12T09:02:14.997Z,72.36
2018-09-12T09:06:59.583Z,72.26
2018-09-12T09:11:43.732Z,71.36
2018-09-12T09:16:28.070Z,70.72
2018-09-12T09:21:11.568Z,70.23
2018-09-12T09:25:56.135Z,70.96
2018-09-12T09:30:39.528Z,68.34
2018-09-12T09:35:24.104Z,68.09
2018-09-12T09:40:08.372Z,65.63
2018-09-12T09:44:55.195Z,66.43
2018-09-12T09:49:38.972Z,65.70
2018-09-12T09:54:22.672Z,64.67
2018-09-12T09:59:05.874Z,65.19
2018-09-12T10:03:54.888Z,66.65
2018-09-12T10:08:43.679Z,65.42
2018-09-12T10:13:28.320Z,63.29
2018-09-12T10:18:11.939Z,60.87
2018-09-12T10:22:55.581Z,62.56
2018-09-12T10:27:39.303Z,64.70
2018-09-12T10:32:22.665Z,64.39
2018-09-12T10:37:11.012Z,64.80
2018-09-12T10:41:54.341Z,65.47
2018-09-12T10:46:41.973Z,64.26
2018-09-12T10:51:25.503Z,63.96
2018-09-12T10:56:12.154Z,62.97
2018-09-12T11:00:56.651Z,61.52
2018-09-12T11:05:45.069Z,61.43
2018-09-12T11:10:28.699Z,59.96
2018-09-12T11:15:16.289Z,61.25
2018-09-12T11:19:59.727Z,61.73
2018-09-12T11:24:44.522Z,62.41
2018-09-12T11:29:28.006Z,59.50
2018-09-12T11:34:15.785Z,60.92
2018-09-12T11:38:59.128Z,63.67
2018-09-12T11:43:42.867Z,63.56
2018-09-12T11:48:26.283Z,66.73
2018-09-12T11:53:14.294Z,72.22
2018-09-12T11:57:57.853Z,68.91
2018-09-12T12:02:41.730Z,66.52
2018-09-12T12:07:26.584Z,64.79
2018-09-12T12:12:10.109Z,61.72
2018-09-12T12:16:55.545Z,61.62
2018-09-12T12:21:39.136Z,60.76
2018-09-12T12:26:26.148Z,60.11
2018-09-12T12:31:09.644Z,61.67
2018-09-12T12:35:54.244Z,61.06
2018-09-12T12:40:37.711Z,62.66
2018-09-12T12:45:22.220Z,62.27
2018-09-12T12:50:05.820Z,62.76
2018-09-12T12:54:50.332Z,62.85
2018-09-12T12:59:34.320Z,63.61
2018-09-12T13:04:17.855Z,64.33
2018-09-12T13:09:01.411Z,63.30
2018-09-12T13:13:46.969Z,64.12
2018-09-12T13:18:31.717Z,62.44
2018-09-12T13:23:16.427Z,61.97
2018-09-12T13:28:00.079Z,60.29
2018-09-12T13:32:43.389Z,63.27
2018-09-12T13:37:26.859Z,63.79
2018-09-12T13:42:10.905Z,65.90
2018-09-12T13:46:55.368Z,67.29
2018-09-12T13:51:38.648Z,67.33
2018-09-12T13:56:35.708Z,67.69
2018-09-12T14:01:19.209Z,68.49
2018-09-12T14:06:06.503Z,68.76
2018-09-12T14:10:49.920Z,67.35
2018-09-12T14:15:34.251Z,67.59
2018-09-12T14:20:17.632Z,69.02
2018-09-12T14:25:01.264Z,70.02
2018-09-12T14:29:44.623Z,69.66
2018-09-12T14:34:31.113Z,69.99
2018-09-12T14:39:14.687Z,69.74
2018-09-12T14:43:59.156Z,71.47
2018-09-12T14:48:42.961Z,73.85
2018-09-12T14:53:26.689Z,74.05
2018-09-12T14:58:10.271Z,73.89
2018-09-12T15:02:57.486Z,74.08
2018-09-12T15:07:40.768Z,74.06
2018-09-12T15:12:24.235Z,75.02
2018-09-12T15:17:11.686Z,75.44
2018-09-12T15:21:55.060Z,75.74
2018-09-12T15:26:38.659Z,77.17
2018-09-12T15:31:22.453Z,75.38
2018-09-12T15:36:09.685Z,76.10
2018-09-12T15:40:53.089Z,76.37
2018-09-12T15:45:36.941Z,76.85
2018-09-12T15:50:22.696Z,77.27
2018-09-12T15:55:09.535Z,78.52
2018-09-12T15:59:52.962Z,78.25
2018-09-12T16:04:40.942Z,80.09
2018-09-12T16:09:24.385Z,80.07
2018-09-12T16:14:08.778Z,79.78
2018-09-12T16:18:58.234Z,79.74
2018-09-12T16:23:45.635Z,80.31
2018-09-12T16:28:29.173Z,80.66
2018-09-12T16:33:16.635Z,79.35
2018-09-12T16:38:00.037Z,81.18
2018-09-12T16:42:44.682Z,80.87
2018-09-12T16:47:28.155Z,81.10
2018-09-12T16:52:11.489Z,80.91
2018-09-12T16:56:55.518Z,80.43
2018-09-12T17:01:38.994Z,79.71
2018-09-12T17:06:23.450Z,79.87
2018-09-12T17:11:06.939Z,79.66
2018-09-12T17:15:51.691Z,78.58
2018-09-12T17:20:35.683Z,78.58
2018-09-12T17:25:26.683Z,78.51
2018-09-12T17:30:10.236Z,77.79
2018-09-12T17:34:55.410Z,78.94
2018-09-12T17:39:39.002Z,78.88
2018-09-12T17:44:22.389Z,78.71
2018-09-12T17:49:06.223Z,79.58
2018-09-12T17:53:50.744Z,78.39
2018-09-12T17:58:42.312Z,79.44
2018-09-12T18:03:26.818Z,79.30
2018-09-12T18:08:21.773Z,79.61
2018-09-12T18:13:06.762Z,79.28
2018-09-12T18:17:50.201Z,79.82
2018-09-12T18:22:33.692Z,80.23
2018-09-12T18:27:17.917Z,79.70
2018-09-12T18:32:01.388Z,79.59
2018-09-12T18:36:44.963Z,79.47
2018-09-12T18:41:29.767Z,78.91
2018-09-12T18:46:14.192Z,80.23
2018-09-12T18:50:57.748Z,81.15
2018-09-12T18:55:44.876Z,80.62
2018-09-12T19:00:28.981Z,80.68
2018-09-12T19:05:12.398Z,79.48
2018-09-12T19:09:55.938Z,79.65
2018-09-12T19:14:40.444Z,79.31
2018-09-12T19:19:24.225Z,80.08
2018-09-12T19:24:07.708Z,79.71
2018-09-12T19:28:51.285Z,79.96
2018-09-12T19:33:35.820Z,79.77
2018-09-12T19:38:19.242Z,79.21
2018-09-12T19:43:03.347Z,80.39
2018-09-12T19:47:46.697Z,81.31
2018-09-12T19:52:30.206Z,81.16
2018-09-12T19:57:17.193Z,81.12
2018-09-12T20:02:00.640Z,81.27
2018-09-12T20:06:43.999Z,81.42
2018-09-12T20:11:27.456Z,80.99
2018-09-12T20:16:11.914Z,81.40
2018-09-12T20:20:55.395Z,81.92
2018-09-12T20:25:40.741Z,81.50
2018-09-12T20:30:24.287Z,81.26
2018-09-12T20:35:09.074Z,81.77
2018-09-12T20:39:52.494Z,82.49
2018-09-12T20:44:37.692Z,83.69
2018-09-12T20:49:20.963Z,85.66
2018-09-12T20:54:13.311Z,86.35
2018-09-12T20:58:56.800Z,85.16
2018-09-12T21:03:40.387Z,83.99
2018-09-12T21:08:23.695Z,84.44
2018-09-12T21:13:07.345Z,84.48
2018-09-12T21:17:51.198Z,86.32
2018-09-12T21:22:34.593Z,87.50
2018-09-12T21:27:17.790Z,87.90
2018-09-12T21:32:02.130Z,86.85
2018-09-12T21:36:45.597Z,85.80
2018-09-12T21:41:29.047Z,86.76
2018-09-12T21:46:12.657Z,87.20
2018-09-12T21:50:55.933Z,87.30
2018-09-12T21:55:39.451Z,85.74
2018-09-12T22:00:22.828Z,86.21
2018-09-12T22:05:07.312Z,87.07
2018-09-12T22:09:50.690Z,86.29
2018-09-12T22:14:34.318Z,86.03
2018-09-12T22:19:17.780Z,86.33
2018-09-12T22:24:02.009Z,87.38
2018-09-12T22:28:45.450Z,87.05
2018-09-12T22:33:28.931Z,87.04
2018-09-12T22:38:13.109Z,86.75
2018-09-12T22:42:56.713Z,87.05
2018-09-12T22:47:40.075Z,87.76
2018-09-12T22:52:23.771Z,87.10
2018-09-12T22:57:07.140Z,87.32
2018-09-12T23:01:50.641Z,87.19
2018-09-12T23:06:33.929Z,88.06
2018-09-12T23:11:17.334Z,88.38
2018-09-12T23:16:00.787Z,88.21
2018-09-12T23:20:44.245Z,86.94
2018-09-12T23:25:28.940Z,87.27
2018-09-12T23:30:12.151Z,87.03
2018-09-12T23:34:58.827Z,87.65
2018-09-12T23:39:42.114Z,88.00
2018-09-12T23:44:29.285Z,87.81
2018-09-12T23:49:12.674Z,87.44
2018-09-12T23:53:56.043Z,87.60
2018-09-12T23:58:39.731Z,88.06
